Airfield :
LOGIN :

Register | Disclaimer

   EN    FR    IT 

 










Legend :    VFR   Marginal VFR   IFR   Intensive IFR   Very Intensive IFR
Visi :
Ceiling :
>= 8 km
>= 3000ft
5 to 8 km
1000 to 3000 ft
1500m to 5 km
500 to 1000 ft
800 to 1500m
200 to 500 ft
< 800m
< 200 ft
Symbols :   Thunderstorms  Fog  Heavy snow  Heavy precipitations  Wind > 20 kt
SIGMETs :     Misc.  Thunderstorms  Icing  Turbulence  Mountain Waves  Volcanic Ashes






- Airport Elevation : 86 ft
- IATA code : HAU


ENHD - Haugesund

CURRENT METAR :
  • 171920Z 16010KT 9000 BKN006 BKN011 07/06 Q1004

EXPIRED METARs :
  • 171850Z 16010KT 9000 BKN007 BKN010 07/06 Q1004
  • 171820Z 17007KT 9000 SCT007 BKN011 BKN015 07/06 Q1004
  • 171750Z 19010KT 9999 BKN007 BKN009 07/06 Q1004
  • 171720Z 17010KT 9000 FEW009 BKN014 BKN074 07/06 Q1004
  • 171650Z 15008KT 8000 SCT007 BKN016 07/06 Q1004

TAF TAF ENHD
Valid from the 17 at 18:00 until the 17 at 21:00 UTC


171700Z 1718/1721 18010KT 9999 SCT007 BKN012
TEMPO 1718/1721 4000 SHRA BR BKN006 SCT015CB



MET'MAP, your aeronautical weather chart ! - Copyright ORBIFLY December 2007 - Disclaimer

ORBIFLY MET'MAP TEAM :

Programming & Development : Alexandra Zaïnal
Concept & original design : Baudouin d'Aumeries
Assistance for programming : Marc-Olivier Méhu
Technical & hardware support : Manuel Goepfert

Contact : metmap@orbifly.com




SOURCES & CREDITS :

   NOAA